Terminal Aerodrome Forecast
Issued by NWS

Home | Current Version | Previous Version | Text Only | Print | Product List | Glossary On
Versions: 1 2 3 4 5 6 7 8 9 10 11 12 13
084
FTUS46 KSEW 300405 AAA
TAFPAE
TAF AMD
KPAE 300405Z 3004/3024 18014G22KT P6SM -RA SCT012 OVC025
      TEMPO 3004/3007 4SM -RA BR SCT008 OVC012
     FM300700 20014G24KT P6SM VCSH SCT020 BKN030 OVC050
     FM301000 30006KT P6SM VCSH SCT012 BKN020
     FM301900 31005KT P6SM -SHRA SCT020 BKN035
     FM302200 36006KT P6SM -SHRA SCT020 BKN035=

USA.gov is the U.S. government's official web portal to all federal, state and local government web resources and services.